sensor_id;sensor_type;location;lat;lon;timestamp;P1;durP1;ratioP1;P2;durP2;ratioP2
31594;SDS011;18200;48.726;8.892;2023-05-07T00:01:30;4.20;;;3.05;;
31594;SDS011;18200;48.726;8.892;2023-05-07T00:05:31;10.23;;;3.50;;
31594;SDS011;18200;48.726;8.892;2023-05-07T00:09:32;5.40;;;3.10;;
31594;SDS011;18200;48.726;8.892;2023-05-07T00:13:32;9.05;;;3.22;;
31594;SDS011;18200;48.726;8.892;2023-05-07T00:17:35;5.00;;;2.63;;
31594;SDS011;18200;48.726;8.892;2023-05-07T00:21:36;4.90;;;3.35;;
31594;SDS011;18200;48.726;8.892;2023-05-07T00:25:36;3.83;;;2.72;;
31594;SDS011;18200;48.726;8.892;2023-05-07T00:29:36;5.85;;;3.25;;
31594;SDS011;18200;48.726;8.892;2023-05-07T00:33:37;5.45;;;3.13;;
31594;SDS011;18200;48.726;8.892;2023-05-07T00:37:38;5.25;;;3.15;;
31594;SDS011;18200;48.726;8.892;2023-05-07T00:41:38;5.60;;;3.13;;
31594;SDS011;18200;48.726;8.892;2023-05-07T00:45:39;5.47;;;2.90;;
31594;SDS011;18200;48.726;8.892;2023-05-07T00:49:43;9.00;;;3.25;;
31594;SDS011;18200;48.726;8.892;2023-05-07T00:53:45;6.13;;;3.08;;
31594;SDS011;18200;48.726;8.892;2023-05-07T00:57:46;6.90;;;2.80;;
31594;SDS011;18200;48.726;8.892;2023-05-07T01:01:47;5.95;;;3.30;;
31594;SDS011;18200;48.726;8.892;2023-05-07T01:05:47;6.25;;;3.33;;
31594;SDS011;18200;48.726;8.892;2023-05-07T01:09:49;7.38;;;3.15;;
31594;SDS011;18200;48.726;8.892;2023-05-07T01:13:50;5.95;;;3.28;;
31594;SDS011;18200;48.726;8.892;2023-05-07T01:17:50;8.05;;;3.17;;
31594;SDS011;18200;48.726;8.892;2023-05-07T01:22:01;6.90;;;3.13;;
31594;SDS011;18200;48.726;8.892;2023-05-07T01:26:05;7.22;;;3.38;;
31594;SDS011;18200;48.726;8.892;2023-05-07T01:30:07;7.22;;;3.13;;
31594;SDS011;18200;48.726;8.892;2023-05-07T01:34:08;5.70;;;3.25;;
31594;SDS011;18200;48.726;8.892;2023-05-07T01:38:11;6.82;;;3.35;;
31594;SDS011;18200;48.726;8.892;2023-05-07T01:42:12;9.82;;;3.35;;
31594;SDS011;18200;48.726;8.892;2023-05-07T01:46:12;8.15;;;3.47;;
31594;SDS011;18200;48.726;8.892;2023-05-07T01:50:15;4.70;;;3.40;;
31594;SDS011;18200;48.726;8.892;2023-05-07T01:54:18;4.75;;;3.47;;
31594;SDS011;18200;48.726;8.892;2023-05-07T01:58:20;6.18;;;3.80;;
31594;SDS011;18200;48.726;8.892;2023-05-07T02:02:20;12.60;;;3.30;;
31594;SDS011;18200;48.726;8.892;2023-05-07T02:06:21;5.32;;;3.63;;
31594;SDS011;18200;48.726;8.892;2023-05-07T02:10:22;6.72;;;3.60;;
31594;SDS011;18200;48.726;8.892;2023-05-07T02:14:22;5.88;;;3.55;;
31594;SDS011;18200;48.726;8.892;2023-05-07T02:18:22;7.45;;;3.38;;
31594;SDS011;18200;48.726;8.892;2023-05-07T02:22:23;6.45;;;3.58;;
31594;SDS011;18200;48.726;8.892;2023-05-07T02:26:24;4.82;;;3.40;;
31594;SDS011;18200;48.726;8.892;2023-05-07T02:30:24;4.18;;;3.35;;
31594;SDS011;18200;48.726;8.892;2023-05-07T02:34:27;8.20;;;3.65;;
31594;SDS011;18200;48.726;8.892;2023-05-07T02:38:28;5.40;;;3.88;;
31594;SDS011;18200;48.726;8.892;2023-05-07T02:42:28;4.35;;;3.30;;
31594;SDS011;18200;48.726;8.892;2023-05-07T02:46:28;6.38;;;3.55;;
31594;SDS011;18200;48.726;8.892;2023-05-07T02:50:37;5.50;;;3.60;;
31594;SDS011;18200;48.726;8.892;2023-05-07T02:54:38;4.95;;;3.22;;
31594;SDS011;18200;48.726;8.892;2023-05-07T02:58:38;5.55;;;3.70;;
31594;SDS011;18200;48.726;8.892;2023-05-07T03:08:05;5.25;;;3.33;;
31594;SDS011;18200;48.726;8.892;2023-05-07T03:12:06;5.60;;;3.40;;
31594;SDS011;18200;48.726;8.892;2023-05-07T03:16:07;4.35;;;3.67;;
31594;SDS011;18200;48.726;8.892;2023-05-07T03:20:07;4.85;;;3.25;;
31594;SDS011;18200;48.726;8.892;2023-05-07T03:24:09;4.68;;;3.33;;
31594;SDS011;18200;48.726;8.892;2023-05-07T03:28:09;7.50;;;3.70;;
31594;SDS011;18200;48.726;8.892;2023-05-07T03:32:19;8.07;;;4.82;;
31594;SDS011;18200;48.726;8.892;2023-05-07T03:36:20;7.65;;;4.15;;
31594;SDS011;18200;48.726;8.892;2023-05-07T03:40:21;12.50;;;5.65;;
31594;SDS011;18200;48.726;8.892;2023-05-07T03:44:25;11.45;;;6.15;;
31594;SDS011;18200;48.726;8.892;2023-05-07T03:48:26;6.38;;;4.97;;
31594;SDS011;18200;48.726;8.892;2023-05-07T03:52:29;9.85;;;5.43;;
31594;SDS011;18200;48.726;8.892;2023-05-07T03:56:33;8.63;;;4.50;;
31594;SDS011;18200;48.726;8.892;2023-05-07T04:00:34;7.88;;;4.05;;
31594;SDS011;18200;48.726;8.892;2023-05-07T04:04:48;7.05;;;4.00;;
31594;SDS011;18200;48.726;8.892;2023-05-07T04:08:49;5.95;;;3.78;;
31594;SDS011;18200;48.726;8.892;2023-05-07T04:12:50;5.78;;;4.20;;
31594;SDS011;18200;48.726;8.892;2023-05-07T04:20:55;5.93;;;3.80;;
31594;SDS011;18200;48.726;8.892;2023-05-07T04:24:55;6.32;;;5.22;;
31594;SDS011;18200;48.726;8.892;2023-05-07T04:28:56;10.13;;;5.63;;
31594;SDS011;18200;48.726;8.892;2023-05-07T04:33:04;5.70;;;4.00;;
31594;SDS011;18200;48.726;8.892;2023-05-07T04:37:07;10.18;;;4.32;;
31594;SDS011;18200;48.726;8.892;2023-05-07T04:41:08;8.68;;;4.35;;
31594;SDS011;18200;48.726;8.892;2023-05-07T04:45:13;5.65;;;3.92;;
31594;SDS011;18200;48.726;8.892;2023-05-07T04:49:16;4.93;;;3.80;;
31594;SDS011;18200;48.726;8.892;2023-05-07T04:53:17;6.25;;;4.30;;
31594;SDS011;18200;48.726;8.892;2023-05-07T04:57:18;6.97;;;4.30;;
31594;SDS011;18200;48.726;8.892;2023-05-07T05:01:19;6.80;;;3.90;;
31594;SDS011;18200;48.726;8.892;2023-05-07T05:05:19;8.80;;;4.40;;
31594;SDS011;18200;48.726;8.892;2023-05-07T05:09:21;5.95;;;4.47;;
31594;SDS011;18200;48.726;8.892;2023-05-07T05:13:22;7.75;;;4.82;;
31594;SDS011;18200;48.726;8.892;2023-05-07T05:17:22;7.00;;;4.22;;
31594;SDS011;18200;48.726;8.892;2023-05-07T05:21:23;6.65;;;4.30;;
31594;SDS011;18200;48.726;8.892;2023-05-07T05:25:28;5.90;;;4.30;;
31594;SDS011;18200;48.726;8.892;2023-05-07T05:29:29;6.05;;;4.45;;
31594;SDS011;18200;48.726;8.892;2023-05-07T05:33:31;7.40;;;4.65;;
31594;SDS011;18200;48.726;8.892;2023-05-07T05:37:36;7.00;;;5.03;;
31594;SDS011;18200;48.726;8.892;2023-05-07T05:41:39;6.20;;;4.43;;
31594;SDS011;18200;48.726;8.892;2023-05-07T05:45:41;6.43;;;4.35;;
31594;SDS011;18200;48.726;8.892;2023-05-07T05:49:41;8.00;;;4.45;;
31594;SDS011;18200;48.726;8.892;2023-05-07T05:53:43;8.70;;;4.65;;
31594;SDS011;18200;48.726;8.892;2023-05-07T05:57:44;7.35;;;4.68;;
31594;SDS011;18200;48.726;8.892;2023-05-07T06:01:45;6.68;;;4.93;;
31594;SDS011;18200;48.726;8.892;2023-05-07T06:05:45;9.82;;;5.82;;
31594;SDS011;18200;48.726;8.892;2023-05-07T06:09:46;6.97;;;4.55;;
31594;SDS011;18200;48.726;8.892;2023-05-07T06:13:47;9.43;;;6.15;;
31594;SDS011;18200;48.726;8.892;2023-05-07T06:17:47;20.90;;;12.23;;
31594;SDS011;18200;48.726;8.892;2023-05-07T06:21:49;11.68;;;6.22;;
31594;SDS011;18200;48.726;8.892;2023-05-07T06:25:50;7.47;;;5.18;;
31594;SDS011;18200;48.726;8.892;2023-05-07T06:29:52;8.00;;;5.00;;
31594;SDS011;18200;48.726;8.892;2023-05-07T06:33:53;5.35;;;4.18;;
31594;SDS011;18200;48.726;8.892;2023-05-07T06:37:55;7.93;;;4.60;;
31594;SDS011;18200;48.726;8.892;2023-05-07T06:42:00;6.15;;;4.35;;
31594;SDS011;18200;48.726;8.892;2023-05-07T06:46:05;8.95;;;8.10;;
31594;SDS011;18200;48.726;8.892;2023-05-07T06:50:08;9.70;;;5.00;;
31594;SDS011;18200;48.726;8.892;2023-05-07T06:54:10;5.18;;;4.38;;
31594;SDS011;18200;48.726;8.892;2023-05-07T06:58:12;8.65;;;4.68;;
31594;SDS011;18200;48.726;8.892;2023-05-07T07:02:13;6.75;;;4.70;;
31594;SDS011;18200;48.726;8.892;2023-05-07T07:06:14;6.50;;;4.50;;
31594;SDS011;18200;48.726;8.892;2023-05-07T07:10:14;7.82;;;4.55;;
31594;SDS011;18200;48.726;8.892;2023-05-07T07:14:15;6.43;;;4.40;;
31594;SDS011;18200;48.726;8.892;2023-05-07T07:18:21;7.97;;;5.10;;
31594;SDS011;18200;48.726;8.892;2023-05-07T07:22:23;7.65;;;4.50;;
31594;SDS011;18200;48.726;8.892;2023-05-07T07:26:23;6.78;;;4.75;;
31594;SDS011;18200;48.726;8.892;2023-05-07T07:30:24;5.50;;;3.92;;
31594;SDS011;18200;48.726;8.892;2023-05-07T07:34:26;6.18;;;4.22;;
31594;SDS011;18200;48.726;8.892;2023-05-07T07:38:26;7.70;;;4.35;;
31594;SDS011;18200;48.726;8.892;2023-05-07T07:42:27;6.53;;;4.20;;
31594;SDS011;18200;48.726;8.892;2023-05-07T07:46:29;7.85;;;3.80;;
31594;SDS011;18200;48.726;8.892;2023-05-07T07:50:30;8.38;;;4.00;;
31594;SDS011;18200;48.726;8.892;2023-05-07T07:54:31;5.93;;;3.40;;
31594;SDS011;18200;48.726;8.892;2023-05-07T07:58:32;5.32;;;4.18;;
31594;SDS011;18200;48.726;8.892;2023-05-07T08:02:34;4.43;;;3.70;;
31594;SDS011;18200;48.726;8.892;2023-05-07T08:06:34;5.43;;;3.42;;
31594;SDS011;18200;48.726;8.892;2023-05-07T08:10:36;3.53;;;3.22;;
31594;SDS011;18200;48.726;8.892;2023-05-07T08:14:42;4.13;;;3.30;;
31594;SDS011;18200;48.726;8.892;2023-05-07T08:18:44;4.13;;;3.03;;
31594;SDS011;18200;48.726;8.892;2023-05-07T08:22:45;4.70;;;3.17;;
31594;SDS011;18200;48.726;8.892;2023-05-07T08:26:45;3.38;;;2.85;;
31594;SDS011;18200;48.726;8.892;2023-05-07T08:30:47;4.35;;;3.10;;
31594;SDS011;18200;48.726;8.892;2023-05-07T08:34:47;4.22;;;2.70;;
31594;SDS011;18200;48.726;8.892;2023-05-07T08:38:48;6.70;;;3.00;;
31594;SDS011;18200;48.726;8.892;2023-05-07T08:42:50;5.20;;;2.70;;
31594;SDS011;18200;48.726;8.892;2023-05-07T08:46:52;6.03;;;3.05;;
31594;SDS011;18200;48.726;8.892;2023-05-07T08:50:57;4.97;;;2.70;;
31594;SDS011;18200;48.726;8.892;2023-05-07T08:54:58;3.85;;;2.42;;
31594;SDS011;18200;48.726;8.892;2023-05-07T08:58:59;3.30;;;2.50;;
31594;SDS011;18200;48.726;8.892;2023-05-07T09:03:02;5.10;;;2.88;;
31594;SDS011;18200;48.726;8.892;2023-05-07T09:07:03;3.38;;;2.53;;
31594;SDS011;18200;48.726;8.892;2023-05-07T09:11:06;6.03;;;2.83;;
31594;SDS011;18200;48.726;8.892;2023-05-07T09:15:07;2.95;;;2.60;;
31594;SDS011;18200;48.726;8.892;2023-05-07T09:19:09;4.28;;;2.58;;
31594;SDS011;18200;48.726;8.892;2023-05-07T09:23:10;4.18;;;2.40;;
31594;SDS011;18200;48.726;8.892;2023-05-07T09:27:11;5.68;;;2.30;;
31594;SDS011;18200;48.726;8.892;2023-05-07T09:31:13;3.38;;;2.50;;
31594;SDS011;18200;48.726;8.892;2023-05-07T09:35:15;5.25;;;2.72;;
31594;SDS011;18200;48.726;8.892;2023-05-07T09:39:17;4.28;;;2.78;;
31594;SDS011;18200;48.726;8.892;2023-05-07T09:43:17;4.22;;;2.70;;
31594;SDS011;18200;48.726;8.892;2023-05-07T09:47:30;3.13;;;2.67;;
31594;SDS011;18200;48.726;8.892;2023-05-07T09:51:41;5.43;;;2.70;;
31594;SDS011;18200;48.726;8.892;2023-05-07T09:55:44;6.88;;;2.47;;
31594;SDS011;18200;48.726;8.892;2023-05-07T09:59:46;4.00;;;2.83;;
31594;SDS011;18200;48.726;8.892;2023-05-07T10:07:51;3.28;;;2.30;;
31594;SDS011;18200;48.726;8.892;2023-05-07T10:11:53;5.18;;;2.75;;
31594;SDS011;18200;48.726;8.892;2023-05-07T10:15:55;4.97;;;2.42;;
31594;SDS011;18200;48.726;8.892;2023-05-07T10:19:58;3.60;;;2.22;;
31594;SDS011;18200;48.726;8.892;2023-05-07T10:24:00;4.63;;;2.50;;
31594;SDS011;18200;48.726;8.892;2023-05-07T10:28:07;6.03;;;2.13;;
31594;SDS011;18200;48.726;8.892;2023-05-07T10:36:31;6.32;;;2.60;;
31594;SDS011;18200;48.726;8.892;2023-05-07T10:40:34;5.10;;;2.08;;
31594;SDS011;18200;48.726;8.892;2023-05-07T10:44:36;4.80;;;2.70;;
31594;SDS011;18200;48.726;8.892;2023-05-07T10:57:36;4.15;;;2.20;;
31594;SDS011;18200;48.726;8.892;2023-05-07T11:01:56;4.45;;;2.45;;
31594;SDS011;18200;48.726;8.892;2023-05-07T11:06:13;4.65;;;2.40;;
31594;SDS011;18200;48.726;8.892;2023-05-07T11:10:22;4.88;;;2.38;;
31594;SDS011;18200;48.726;8.892;2023-05-07T11:18:51;3.85;;;2.28;;
31594;SDS011;18200;48.726;8.892;2023-05-07T11:22:59;3.00;;;2.25;;
31594;SDS011;18200;48.726;8.892;2023-05-07T11:27:23;4.70;;;2.72;;
31594;SDS011;18200;48.726;8.892;2023-05-07T11:31:25;4.22;;;3.00;;
31594;SDS011;18200;48.726;8.892;2023-05-07T11:35:29;4.22;;;3.30;;
31594;SDS011;18200;48.726;8.892;2023-05-07T11:39:30;6.57;;;3.53;;
31594;SDS011;18200;48.726;8.892;2023-05-07T11:43:33;12.68;;;4.38;;
31594;SDS011;18200;48.726;8.892;2023-05-07T11:47:35;18.83;;;5.10;;
31594;SDS011;18200;48.726;8.892;2023-05-07T11:51:36;16.73;;;5.85;;
31594;SDS011;18200;48.726;8.892;2023-05-07T11:55:36;12.82;;;6.18;;
31594;SDS011;18200;48.726;8.892;2023-05-07T11:59:39;10.50;;;4.97;;
31594;SDS011;18200;48.726;8.892;2023-05-07T12:03:40;12.57;;;6.07;;
31594;SDS011;18200;48.726;8.892;2023-05-07T12:07:45;12.93;;;6.00;;
31594;SDS011;18200;48.726;8.892;2023-05-07T12:11:46;8.52;;;5.95;;
31594;SDS011;18200;48.726;8.892;2023-05-07T12:15:50;13.30;;;6.72;;
31594;SDS011;18200;48.726;8.892;2023-05-07T12:19:54;10.85;;;6.25;;
31594;SDS011;18200;48.726;8.892;2023-05-07T12:23:54;8.13;;;5.82;;
31594;SDS011;18200;48.726;8.892;2023-05-07T12:27:55;5.75;;;4.35;;
31594;SDS011;18200;48.726;8.892;2023-05-07T12:31:57;7.55;;;4.15;;
31594;SDS011;18200;48.726;8.892;2023-05-07T12:35:58;5.93;;;3.33;;
31594;SDS011;18200;48.726;8.892;2023-05-07T12:40:08;12.80;;;3.83;;
31594;SDS011;18200;48.726;8.892;2023-05-07T12:44:10;9.77;;;4.50;;
31594;SDS011;18200;48.726;8.892;2023-05-07T12:48:10;8.88;;;4.63;;
31594;SDS011;18200;48.726;8.892;2023-05-07T12:52:11;10.60;;;5.60;;
31594;SDS011;18200;48.726;8.892;2023-05-07T12:56:11;10.40;;;5.88;;
31594;SDS011;18200;48.726;8.892;2023-05-07T13:00:15;12.73;;;6.25;;
31594;SDS011;18200;48.726;8.892;2023-05-07T13:04:16;11.88;;;5.32;;
31594;SDS011;18200;48.726;8.892;2023-05-07T13:12:30;13.55;;;6.93;;
31594;SDS011;18200;48.726;8.892;2023-05-07T13:16:30;9.38;;;4.72;;
31594;SDS011;18200;48.726;8.892;2023-05-07T13:20:31;5.32;;;4.05;;
31594;SDS011;18200;48.726;8.892;2023-05-07T13:24:31;4.70;;;3.33;;
31594;SDS011;18200;48.726;8.892;2023-05-07T13:28:31;5.63;;;3.42;;
31594;SDS011;18200;48.726;8.892;2023-05-07T13:32:32;9.05;;;2.92;;
31594;SDS011;18200;48.726;8.892;2023-05-07T13:36:32;3.97;;;2.72;;
31594;SDS011;18200;48.726;8.892;2023-05-07T13:44:37;4.88;;;3.08;;
31594;SDS011;18200;48.726;8.892;2023-05-07T13:48:37;7.28;;;3.13;;
31594;SDS011;18200;48.726;8.892;2023-05-07T13:52:37;6.65;;;3.10;;
31594;SDS011;18200;48.726;8.892;2023-05-07T13:56:40;4.88;;;3.45;;
31594;SDS011;18200;48.726;8.892;2023-05-07T14:00:40;10.35;;;3.40;;
31594;SDS011;18200;48.726;8.892;2023-05-07T14:04:41;6.45;;;3.55;;
31594;SDS011;18200;48.726;8.892;2023-05-07T14:08:41;5.30;;;3.40;;
31594;SDS011;18200;48.726;8.892;2023-05-07T14:12:41;7.28;;;4.28;;
31594;SDS011;18200;48.726;8.892;2023-05-07T14:16:42;5.60;;;3.20;;
31594;SDS011;18200;48.726;8.892;2023-05-07T14:20:42;7.70;;;3.42;;
31594;SDS011;18200;48.726;8.892;2023-05-07T14:24:47;5.95;;;3.30;;
31594;SDS011;18200;48.726;8.892;2023-05-07T14:28:48;5.72;;;3.30;;
31594;SDS011;18200;48.726;8.892;2023-05-07T14:32:49;4.72;;;3.50;;
31594;SDS011;18200;48.726;8.892;2023-05-07T14:36:49;5.10;;;3.53;;
31594;SDS011;18200;48.726;8.892;2023-05-07T14:40:49;7.55;;;4.45;;
31594;SDS011;18200;48.726;8.892;2023-05-07T14:44:50;6.18;;;4.32;;
31594;SDS011;18200;48.726;8.892;2023-05-07T14:48:50;6.55;;;4.05;;
31594;SDS011;18200;48.726;8.892;2023-05-07T14:52:50;6.95;;;3.88;;
31594;SDS011;18200;48.726;8.892;2023-05-07T14:56:51;6.22;;;3.00;;
31594;SDS011;18200;48.726;8.892;2023-05-07T15:00:51;5.25;;;3.40;;
31594;SDS011;18200;48.726;8.892;2023-05-07T15:04:52;4.10;;;3.13;;
31594;SDS011;18200;48.726;8.892;2023-05-07T15:08:52;5.40;;;3.00;;
31594;SDS011;18200;48.726;8.892;2023-05-07T15:12:53;7.88;;;5.07;;
31594;SDS011;18200;48.726;8.892;2023-05-07T15:16:53;6.50;;;4.05;;
31594;SDS011;18200;48.726;8.892;2023-05-07T15:20:55;7.55;;;3.78;;
31594;SDS011;18200;48.726;8.892;2023-05-07T15:24:55;9.00;;;3.60;;
31594;SDS011;18200;48.726;8.892;2023-05-07T15:28:57;6.00;;;3.78;;
31594;SDS011;18200;48.726;8.892;2023-05-07T15:32:57;9.13;;;3.65;;
31594;SDS011;18200;48.726;8.892;2023-05-07T15:36:58;7.07;;;3.30;;
31594;SDS011;18200;48.726;8.892;2023-05-07T15:40:58;6.57;;;3.33;;
31594;SDS011;18200;48.726;8.892;2023-05-07T15:44:58;4.30;;;2.60;;
31594;SDS011;18200;48.726;8.892;2023-05-07T15:49:01;4.18;;;2.83;;
31594;SDS011;18200;48.726;8.892;2023-05-07T15:53:04;4.30;;;2.70;;
31594;SDS011;18200;48.726;8.892;2023-05-07T15:57:04;5.18;;;2.70;;
31594;SDS011;18200;48.726;8.892;2023-05-07T16:01:06;6.35;;;2.85;;
31594;SDS011;18200;48.726;8.892;2023-05-07T16:05:06;2.58;;;2.25;;
31594;SDS011;18200;48.726;8.892;2023-05-07T16:09:12;6.75;;;2.45;;
31594;SDS011;18200;48.726;8.892;2023-05-07T16:13:12;3.80;;;2.60;;
31594;SDS011;18200;48.726;8.892;2023-05-07T16:17:13;3.75;;;2.30;;
31594;SDS011;18200;48.726;8.892;2023-05-07T16:21:13;5.75;;;2.60;;
31594;SDS011;18200;48.726;8.892;2023-05-07T16:25:13;6.07;;;2.38;;
31594;SDS011;18200;48.726;8.892;2023-05-07T16:29:14;2.80;;;2.25;;
31594;SDS011;18200;48.726;8.892;2023-05-07T16:33:15;3.88;;;2.97;;
31594;SDS011;18200;48.726;8.892;2023-05-07T16:37:15;6.90;;;2.90;;
31594;SDS011;18200;48.726;8.892;2023-05-07T16:41:15;3.63;;;2.53;;
31594;SDS011;18200;48.726;8.892;2023-05-07T16:45:16;3.03;;;2.20;;
31594;SDS011;18200;48.726;8.892;2023-05-07T16:49:18;4.53;;;2.53;;
31594;SDS011;18200;48.726;8.892;2023-05-07T16:53:18;6.30;;;3.00;;
31594;SDS011;18200;48.726;8.892;2023-05-07T16:57:19;5.97;;;3.15;;
31594;SDS011;18200;48.726;8.892;2023-05-07T17:01:19;5.00;;;2.45;;
31594;SDS011;18200;48.726;8.892;2023-05-07T17:05:20;4.15;;;2.38;;
31594;SDS011;18200;48.726;8.892;2023-05-07T17:09:20;4.72;;;2.65;;
31594;SDS011;18200;48.726;8.892;2023-05-07T17:13:21;5.13;;;3.50;;
31594;SDS011;18200;48.726;8.892;2023-05-07T17:17:22;10.05;;;4.53;;
31594;SDS011;18200;48.726;8.892;2023-05-07T17:21:22;8.75;;;5.75;;
31594;SDS011;18200;48.726;8.892;2023-05-07T17:25:22;4.72;;;3.88;;
31594;SDS011;18200;48.726;8.892;2023-05-07T17:29:23;7.93;;;5.10;;
31594;SDS011;18200;48.726;8.892;2023-05-07T17:33:23;6.03;;;3.38;;
31594;SDS011;18200;48.726;8.892;2023-05-07T17:37:23;7.25;;;3.75;;
31594;SDS011;18200;48.726;8.892;2023-05-07T17:41:24;5.25;;;3.60;;
31594;SDS011;18200;48.726;8.892;2023-05-07T17:45:24;5.05;;;2.95;;
31594;SDS011;18200;48.726;8.892;2023-05-07T17:49:25;4.55;;;3.20;;
31594;SDS011;18200;48.726;8.892;2023-05-07T17:53:25;5.82;;;3.67;;
31594;SDS011;18200;48.726;8.892;2023-05-07T17:57:27;7.00;;;4.22;;
31594;SDS011;18200;48.726;8.892;2023-05-07T18:01:28;8.95;;;3.60;;
31594;SDS011;18200;48.726;8.892;2023-05-07T18:05:28;5.13;;;3.15;;
31594;SDS011;18200;48.726;8.892;2023-05-07T18:09:29;4.82;;;3.28;;
31594;SDS011;18200;48.726;8.892;2023-05-07T18:13:29;8.55;;;3.47;;
31594;SDS011;18200;48.726;8.892;2023-05-07T18:17:29;8.35;;;4.03;;
31594;SDS011;18200;48.726;8.892;2023-05-07T18:21:30;5.18;;;3.40;;
31594;SDS011;18200;48.726;8.892;2023-05-07T18:25:30;7.78;;;3.90;;
31594;SDS011;18200;48.726;8.892;2023-05-07T18:29:31;5.68;;;4.63;;
31594;SDS011;18200;48.726;8.892;2023-05-07T18:33:31;7.40;;;4.60;;
31594;SDS011;18200;48.726;8.892;2023-05-07T18:37:32;6.18;;;5.03;;
31594;SDS011;18200;48.726;8.892;2023-05-07T18:41:34;7.10;;;4.65;;
31594;SDS011;18200;48.726;8.892;2023-05-07T18:45:34;5.40;;;3.88;;
31594;SDS011;18200;48.726;8.892;2023-05-07T18:49:36;9.43;;;4.55;;
31594;SDS011;18200;48.726;8.892;2023-05-07T18:53:37;7.30;;;3.72;;
31594;SDS011;18200;48.726;8.892;2023-05-07T18:57:38;6.72;;;4.85;;
31594;SDS011;18200;48.726;8.892;2023-05-07T19:01:39;6.25;;;4.57;;
31594;SDS011;18200;48.726;8.892;2023-05-07T19:05:40;7.25;;;4.18;;
31594;SDS011;18200;48.726;8.892;2023-05-07T19:09:41;8.18;;;5.28;;
31594;SDS011;18200;48.726;8.892;2023-05-07T19:13:42;7.55;;;5.30;;
31594;SDS011;18200;48.726;8.892;2023-05-07T19:17:42;6.15;;;4.43;;
31594;SDS011;18200;48.726;8.892;2023-05-07T19:21:42;7.55;;;4.82;;
31594;SDS011;18200;48.726;8.892;2023-05-07T19:25:43;11.55;;;5.38;;
31594;SDS011;18200;48.726;8.892;2023-05-07T19:29:43;7.72;;;4.75;;
31594;SDS011;18200;48.726;8.892;2023-05-07T19:33:44;9.55;;;7.35;;
31594;SDS011;18200;48.726;8.892;2023-05-07T19:37:44;10.70;;;6.90;;
31594;SDS011;18200;48.726;8.892;2023-05-07T19:41:45;8.45;;;6.40;;
31594;SDS011;18200;48.726;8.892;2023-05-07T19:45:45;7.60;;;5.50;;
31594;SDS011;18200;48.726;8.892;2023-05-07T19:49:47;9.63;;;5.30;;
31594;SDS011;18200;48.726;8.892;2023-05-07T19:53:47;6.32;;;5.18;;
31594;SDS011;18200;48.726;8.892;2023-05-07T19:57:48;8.05;;;4.95;;
31594;SDS011;18200;48.726;8.892;2023-05-07T20:01:49;8.00;;;5.60;;
31594;SDS011;18200;48.726;8.892;2023-05-07T20:05:49;8.90;;;5.70;;
31594;SDS011;18200;48.726;8.892;2023-05-07T20:09:50;10.15;;;7.45;;
31594;SDS011;18200;48.726;8.892;2023-05-07T20:13:50;9.55;;;6.95;;
31594;SDS011;18200;48.726;8.892;2023-05-07T20:17:50;9.43;;;7.13;;
31594;SDS011;18200;48.726;8.892;2023-05-07T20:21:50;7.25;;;5.60;;
31594;SDS011;18200;48.726;8.892;2023-05-07T20:25:51;7.45;;;5.43;;
31594;SDS011;18200;48.726;8.892;2023-05-07T20:29:52;10.45;;;7.55;;
31594;SDS011;18200;48.726;8.892;2023-05-07T20:33:52;8.75;;;6.03;;
31594;SDS011;18200;48.726;8.892;2023-05-07T20:37:53;7.57;;;5.90;;
31594;SDS011;18200;48.726;8.892;2023-05-07T20:41:53;12.75;;;6.90;;
31594;SDS011;18200;48.726;8.892;2023-05-07T20:45:57;11.23;;;8.48;;
31594;SDS011;18200;48.726;8.892;2023-05-07T20:50:00;9.45;;;6.55;;
31594;SDS011;18200;48.726;8.892;2023-05-07T20:54:00;10.10;;;6.82;;
31594;SDS011;18200;48.726;8.892;2023-05-07T20:58:01;8.93;;;7.50;;
31594;SDS011;18200;48.726;8.892;2023-05-07T21:02:01;10.30;;;7.25;;
31594;SDS011;18200;48.726;8.892;2023-05-07T21:06:02;13.48;;;7.85;;
31594;SDS011;18200;48.726;8.892;2023-05-07T21:10:03;10.50;;;8.40;;
31594;SDS011;18200;48.726;8.892;2023-05-07T21:14:03;9.35;;;8.23;;
31594;SDS011;18200;48.726;8.892;2023-05-07T21:18:04;10.35;;;7.88;;
31594;SDS011;18200;48.726;8.892;2023-05-07T21:22:04;15.80;;;9.13;;
31594;SDS011;18200;48.726;8.892;2023-05-07T21:26:05;12.20;;;7.60;;
31594;SDS011;18200;48.726;8.892;2023-05-07T21:30:05;9.55;;;7.43;;
31594;SDS011;18200;48.726;8.892;2023-05-07T21:34:06;13.38;;;9.02;;
31594;SDS011;18200;48.726;8.892;2023-05-07T21:38:06;11.90;;;8.30;;
31594;SDS011;18200;48.726;8.892;2023-05-07T21:42:07;9.70;;;7.50;;
31594;SDS011;18200;48.726;8.892;2023-05-07T21:46:08;12.40;;;8.38;;
31594;SDS011;18200;48.726;8.892;2023-05-07T21:50:09;10.65;;;7.38;;
31594;SDS011;18200;48.726;8.892;2023-05-07T21:54:09;8.65;;;6.85;;
31594;SDS011;18200;48.726;8.892;2023-05-07T21:58:10;11.10;;;8.05;;
31594;SDS011;18200;48.726;8.892;2023-05-07T22:02:10;9.95;;;8.10;;
31594;SDS011;18200;48.726;8.892;2023-05-07T22:06:11;12.07;;;8.15;;
31594;SDS011;18200;48.726;8.892;2023-05-07T22:10:11;9.05;;;7.05;;
31594;SDS011;18200;48.726;8.892;2023-05-07T22:14:11;10.02;;;7.53;;
31594;SDS011;18200;48.726;8.892;2023-05-07T22:18:12;11.32;;;8.18;;
31594;SDS011;18200;48.726;8.892;2023-05-07T22:22:12;10.77;;;7.88;;
31594;SDS011;18200;48.726;8.892;2023-05-07T22:26:12;12.18;;;8.15;;
31594;SDS011;18200;48.726;8.892;2023-05-07T22:30:13;12.25;;;8.40;;
31594;SDS011;18200;48.726;8.892;2023-05-07T22:34:13;13.57;;;9.90;;
31594;SDS011;18200;48.726;8.892;2023-05-07T22:38:14;11.20;;;8.18;;
31594;SDS011;18200;48.726;8.892;2023-05-07T22:42:14;13.23;;;9.32;;
31594;SDS011;18200;48.726;8.892;2023-05-07T22:46:14;14.77;;;10.07;;
31594;SDS011;18200;48.726;8.892;2023-05-07T22:50:15;11.70;;;9.68;;
31594;SDS011;18200;48.726;8.892;2023-05-07T22:54:15;11.73;;;8.93;;
31594;SDS011;18200;48.726;8.892;2023-05-07T22:58:16;17.33;;;10.68;;
31594;SDS011;18200;48.726;8.892;2023-05-07T23:02:16;13.80;;;10.52;;
31594;SDS011;18200;48.726;8.892;2023-05-07T23:06:16;14.07;;;9.63;;
31594;SDS011;18200;48.726;8.892;2023-05-07T23:10:17;13.25;;;9.60;;
31594;SDS011;18200;48.726;8.892;2023-05-07T23:14:17;12.50;;;10.18;;
31594;SDS011;18200;48.726;8.892;2023-05-07T23:18:17;13.55;;;9.68;;
31594;SDS011;18200;48.726;8.892;2023-05-07T23:22:18;14.00;;;10.55;;
31594;SDS011;18200;48.726;8.892;2023-05-07T23:26:18;9.45;;;8.30;;
31594;SDS011;18200;48.726;8.892;2023-05-07T23:30:19;13.50;;;10.43;;
31594;SDS011;18200;48.726;8.892;2023-05-07T23:34:19;16.33;;;10.90;;
31594;SDS011;18200;48.726;8.892;2023-05-07T23:38:22;17.50;;;11.82;;
31594;SDS011;18200;48.726;8.892;2023-05-07T23:42:23;18.90;;;13.50;;
31594;SDS011;18200;48.726;8.892;2023-05-07T23:46:23;14.68;;;11.68;;
31594;SDS011;18200;48.726;8.892;2023-05-07T23:50:23;24.05;;;13.60;;
31594;SDS011;18200;48.726;8.892;2023-05-07T23:54:24;14.93;;;11.23;;
31594;SDS011;18200;48.726;8.892;2023-05-07T23:58:24;14.27;;;11.38;;
